Weather at Amsterdam Airport Schiphol

Public forecast

Using degrees Celsius for public forecast. Weather courtesy of forecast.io.

Current aviation weather report (METAR) for Amsterdam Airport Schiphol

Retrieved 2022/05/22 00:55 UTC (12 minutes ago):

EHAM 220055Z VRB01KT 9999 R18C/P2000N R27/P2000N R18R/0800U R06/P2000N MIFG NSC 09/09 Q1019 NOSIG

Aviation forecast (TAF) for Amsterdam Airport Schiphol

Retrieved 2022-05-22 00:27 UTC (40 minutes ago):

TAF EHAM 212307Z 2200/2306 VRB02KT 7000 MIFG NSC BECMG 2205/2208 17005KT CAVOK BECMG 2215/2218 36007KT BECMG 2219/2222 11007KT